createdAt,value
2022-11-15T00:07:58.667Z,50.50
2022-11-15T00:18:21.506Z,45.80
2022-11-15T00:28:44.206Z,42.50
2022-11-15T00:39:07.420Z,45.60
2022-11-15T00:49:29.596Z,43.10
2022-11-15T00:59:51.884Z,37.70
2022-11-15T01:10:14.275Z,33.10
2022-11-15T01:20:44.355Z,37.80
2022-11-15T01:31:13.592Z,38.60
2022-11-15T01:41:35.873Z,34.40
2022-11-15T01:52:00.231Z,35.90
2022-11-15T02:02:23.219Z,33.10
2022-11-15T02:12:47.314Z,32.50
2022-11-15T02:23:39.844Z,31.60
2022-11-15T02:34:07.025Z,32.60
2022-11-15T02:44:38.736Z,30.80
2022-11-15T02:55:02.924Z,30.60
2022-11-15T03:05:43.805Z,29.00
2022-11-15T03:16:29.914Z,25.10
2022-11-15T03:26:55.621Z,26.00
2022-11-15T03:37:22.495Z,24.50
2022-11-15T03:47:55.424Z,23.30
2022-11-15T03:58:17.881Z,23.50
2022-11-15T04:08:40.303Z,23.70
2022-11-15T04:19:21.835Z,27.20
2022-11-15T04:29:44.323Z,22.30
2022-11-15T04:40:07.638Z,20.80
2022-11-15T04:50:30.237Z,22.30
2022-11-15T05:00:53.510Z,24.20
2022-11-15T05:11:16.243Z,18.70
2022-11-15T05:21:39.378Z,21.90
2022-11-15T05:32:02.075Z,25.50
2022-11-15T05:42:25.563Z,29.70
2022-11-15T05:52:48.829Z,21.40
2022-11-15T06:03:12.447Z,22.50
2022-11-15T06:13:35.509Z,21.60
2022-11-15T06:23:58.000Z,31.80
2022-11-15T06:34:20.291Z,27.50
2022-11-15T06:44:43.298Z,17.80
2022-11-15T06:55:06.571Z,25.20
2022-11-15T07:05:29.595Z,23.20
2022-11-15T07:15:52.010Z,20.80
2022-11-15T07:26:14.465Z,20.90
2022-11-15T07:36:37.710Z,19.50
2022-11-15T07:47:00.198Z,19.00
2022-11-15T07:57:23.232Z,22.90
2022-11-15T08:07:45.988Z,21.70
2022-11-15T08:18:13.113Z,21.20
2022-11-15T08:28:35.405Z,20.60
2022-11-15T08:38:57.792Z,17.80
2022-11-15T08:49:20.837Z,12.30
2022-11-15T08:59:44.845Z,11.90
2022-11-15T09:10:08.319Z,11.00
2022-11-15T09:20:30.626Z,9.30
2022-11-15T09:30:58.801Z,10.30
2022-11-15T09:41:30.151Z,9.90
2022-11-15T09:51:55.478Z,9.00
2022-11-15T10:02:47.467Z,8.20
2022-11-15T10:12:54.211Z,8.70
2022-11-15T10:23:02.463Z,9.30
2022-11-15T10:33:21.395Z,8.50
2022-11-15T10:43:27.536Z,8.90
2022-11-15T10:53:46.733Z,6.80
2022-11-15T11:04:10.333Z,5.50
2022-11-15T11:14:22.405Z,5.30
2022-11-15T11:24:46.948Z,5.60
2022-11-15T11:35:09.333Z,5.60
2022-11-15T11:45:25.287Z,6.10
2022-11-15T11:55:40.001Z,5.80
2022-11-15T12:05:48.398Z,6.10
2022-11-15T12:16:07.438Z,5.50
2022-11-15T12:26:20.374Z,6.50
2022-11-15T12:36:24.651Z,6.40
2022-11-15T12:46:31.530Z,7.00
2022-11-15T12:56:36.074Z,7.20
2022-11-15T13:06:47.900Z,6.20
2022-11-15T13:17:00.423Z,6.20
2022-11-15T13:27:20.998Z,12.50
2022-11-15T13:37:25.316Z,17.20
2022-11-15T13:47:31.035Z,15.40
2022-11-15T13:57:58.744Z,15.80
2022-11-15T14:08:22.362Z,18.80
2022-11-15T14:18:48.258Z,21.50
2022-11-15T14:28:52.612Z,21.80
2022-11-15T14:38:56.796Z,19.30
2022-11-15T14:49:01.076Z,18.00
2022-11-15T14:59:05.037Z,22.90
2022-11-15T15:09:09.017Z,16.80
2022-11-15T15:19:13.290Z,18.50
2022-11-15T15:29:17.165Z,23.90
2022-11-15T15:39:20.828Z,27.40
2022-11-15T15:49:25.210Z,23.60
2022-11-15T15:59:29.280Z,63.80
2022-11-15T16:09:51.981Z,30.20
2022-11-15T16:19:56.065Z,24.00
2022-11-15T16:30:00.083Z,29.80
2022-11-15T16:40:04.722Z,34.70
2022-11-15T16:50:24.558Z,40.00
2022-11-15T17:00:29.823Z,40.90
2022-11-15T17:10:34.759Z,42.80
2022-11-15T17:20:39.057Z,41.50
2022-11-15T17:30:44.322Z,47.00
2022-11-15T17:40:49.227Z,54.20
2022-11-15T17:51:05.349Z,40.60
2022-11-15T18:01:22.292Z,45.90
2022-11-15T18:11:30.568Z,43.10
2022-11-15T18:21:38.058Z,41.30
2022-11-15T18:31:47.420Z,42.60
2022-11-15T18:41:53.476Z,52.10
2022-11-15T18:51:58.985Z,43.50
2022-11-15T19:02:03.678Z,44.40
2022-11-15T19:12:09.218Z,41.30
2022-11-15T19:22:13.976Z,41.10
2022-11-15T19:32:20.719Z,52.80
2022-11-15T19:42:25.598Z,46.20
2022-11-15T19:52:30.797Z,45.50
2022-11-15T20:02:35.596Z,48.60
2022-11-15T20:12:40.184Z,57.60
2022-11-15T20:22:44.878Z,65.70
2022-11-15T20:32:58.152Z,64.30
2022-11-15T20:43:06.963Z,70.00
2022-11-15T20:53:17.859Z,75.00
2022-11-15T21:03:22.337Z,69.60
2022-11-15T21:13:28.013Z,69.30
2022-11-15T21:23:35.816Z,67.80
2022-11-15T21:33:40.058Z,73.30
2022-11-15T21:43:44.475Z,73.80
2022-11-15T21:53:48.241Z,75.10
2022-11-15T22:03:52.828Z,65.70
2022-11-15T22:13:58.705Z,67.50
2022-11-15T22:24:02.851Z,62.40
2022-11-15T22:34:07.311Z,65.00
2022-11-15T22:44:11.590Z,73.00
2022-11-15T22:54:15.868Z,66.20
2022-11-15T23:04:19.942Z,66.40
2022-11-15T23:14:23.920Z,63.10
2022-11-15T23:24:27.987Z,65.90
2022-11-15T23:34:32.697Z,65.90
2022-11-15T23:44:37.450Z,69.20
2022-11-15T23:54:42.058Z,60.50
